Time;durP1;ratioP1;P1;durP2;ratioP2;P2;SDS_P1;SDS_P2;PMS_P1;PMS_P2;Temp;Humidity;BMP_temperature;BMP_pressure;BME280_temperature;BME280_humidity;BME280_pressure;Samples;Min_cycle;Max_cycle;Signal;HPM_P1;HPM_P2
2022/01/25 00:15:03;;;;;;;20.27;6.82;;;;;;;-7.74;85.21;100531.97;4484313;31;20107;-74
2022/01/25 00:27:25;;;;;;;13.35;6.53;;;;;;;-7.41;84.01;100529.00;4484751;31;20088;-73
2022/01/25 00:30:21;;;;;;;14.60;6.37;;;;;;;-7.41;83.57;100520.53;4484591;31;20503;-73
2022/01/25 00:32:46;;;;;;;16.33;6.60;;;;;;;-7.47;83.64;100523.00;4484560;31;20108;-73
2022/01/25 00:35:13;;;;;;;17.95;7.47;;;;;;;-7.43;83.38;100523.06;4484507;31;20111;-74
2022/01/25 00:37:40;;;;;;;14.82;6.60;;;;;;;-7.40;83.21;100522.22;4484609;31;20490;-74
2022/01/25 00:40:08;;;;;;;11.88;4.47;;;;;;;-7.44;83.57;100523.88;4483411;32;20104;-73
2022/01/25 00:42:35;;;;;;;17.37;6.95;;;;;;;-7.28;83.02;100524.94;4484639;31;20100;-73
2022/01/25 00:45:02;;;;;;;13.13;5.72;;;;;;;-7.28;82.97;100532.56;4484572;31;20119;-74
2022/01/25 00:47:30;;;;;;;16.15;5.65;;;;;;;-7.28;82.89;100526.62;4484381;32;20141;-73
2022/01/25 00:49:57;;;;;;;23.95;6.03;;;;;;;-7.35;83.00;100518.91;4484598;31;20562;-73
2022/01/25 00:54:53;;;;;;;17.15;6.18;;;;;;;-7.42;83.27;100519.66;4484436;31;20561;-73
2022/01/25 00:57:20;;;;;;;19.52;6.60;;;;;;;-7.40;83.61;100520.56;4484343;31;20092;-74
2022/01/25 00:59:47;;;;;;;21.00;5.75;;;;;;;-7.41;83.41;100515.44;4484053;31;20104;-73
2022/01/25 01:02:15;;;;;;;19.15;6.45;;;;;;;-7.36;82.99;100509.56;4484505;31;20846;-73
2022/01/25 01:04:43;;;;;;;13.95;6.75;;;;;;;-7.43;82.46;100505.25;4484408;31;20111;-73
2022/01/25 01:07:13;;;;;;;15.02;7.10;;;;;;;-7.58;82.90;100505.06;4484189;31;20085;-74
2022/01/25 01:09:44;;;;;;;19.00;7.03;;;;;;;-7.65;83.88;100505.81;4484136;31;20497;-73
2022/01/25 01:12:20;;;;;;;12.85;5.82;;;;;;;-7.65;83.96;100509.19;4484309;31;20434;-73
2022/01/25 01:15:00;;;;;;;13.73;5.37;;;;;;;-7.72;84.29;100500.63;4484213;32;20155;-73
2022/01/25 01:43:58;;;;;;;17.98;6.68;;;;;;;-7.78;84.94;100469.16;4486135;31;20378;-73
2022/01/25 01:46:59;;;;;;;16.00;7.47;;;;;;;-7.87;84.95;100470.75;4485793;31;20118;-73
2022/01/25 01:49:16;;;;;;;20.75;7.32;;;;;;;-8.03;85.52;100474.78;4483932;32;20104;-73
2022/01/25 01:51:44;;;;;;;15.10;6.90;;;;;;;-7.99;86.39;100459.56;4485983;31;20118;-73
2022/01/25 01:54:14;;;;;;;13.52;6.10;;;;;;;-7.92;86.20;100454.56;4486039;31;20111;-74
2022/01/25 01:56:44;;;;;;;20.95;6.28;;;;;;;-8.00;85.76;100456.16;4483203;31;78606;-74
2022/01/25 01:59:14;;;;;;;13.80;6.37;;;;;;;-8.13;85.93;100452.62;4485852;31;20425;-73
2022/01/25 02:01:44;;;;;;;21.45;7.57;;;;;;;-8.27;85.91;100451.56;4485727;31;20087;-74
2022/01/25 02:04:14;;;;;;;19.08;7.20;;;;;;;-8.27;87.20;100451.56;4485953;31;20115;-74
2022/01/25 02:06:41;;;;;;;21.62;7.20;;;;;;;-8.03;86.88;100444.25;4485784;31;20866;-73
2022/01/25 02:09:09;;;;;;;17.67;6.85;;;;;;;-8.01;86.44;100444.28;4485952;31;20416;-74
2022/01/25 02:11:38;;;;;;;22.62;7.10;;;;;;;-7.99;86.00;100441.75;4484498;32;20446;-73
2022/01/25 02:14:08;;;;;;;15.32;6.75;;;;;;;-8.03;85.61;100439.16;4485896;31;20096;-73
2022/01/25 02:17:38;;;;;;;16.98;7.00;;;;;;;-8.10;85.16;100441.59;4484607;32;20096;-74
2022/01/25 02:24:49;;;;;;;15.98;5.95;;;;;;;-8.15;85.87;100436.47;4484608;32;20496;-73
2022/01/25 02:27:17;;;;;;;14.50;6.87;;;;;;;-8.24;85.68;100433.78;4484287;32;20465;-73
2022/01/25 02:29:44;;;;;;;14.85;5.65;;;;;;;-8.42;86.45;100429.31;4485617;31;20107;-73
2022/01/25 02:32:11;;;;;;;14.23;5.85;;;;;;;-8.35;86.93;100420.09;4484925;32;20139;-73
2022/01/25 02:34:40;;;;;;;17.70;6.53;;;;;;;-8.30;86.14;100426.94;4484367;32;20172;-74
2022/01/25 02:37:10;;;;;;;16.35;6.72;;;;;;;-8.39;86.36;100417.50;4485531;31;20406;-73
2022/01/25 02:39:39;;;;;;;18.42;6.72;;;;;;;-8.48;86.51;100412.31;4485576;31;20084;-73
2022/01/25 02:42:07;;;;;;;13.23;6.35;;;;;;;-8.57;87.31;100405.44;4485492;31;20104;-73
2022/01/25 02:44:36;;;;;;;20.45;6.62;;;;;;;-8.51;87.42;100403.78;4485678;31;20438;-74
2022/01/25 02:49:33;;;;;;;14.60;5.95;;;;;;;-8.58;87.90;100408.78;4485531;31;20172;-73
2022/01/25 02:52:03;;;;;;;13.43;6.28;;;;;;;-8.57;88.18;100402.87;4485492;31;20096;-74
2022/01/25 02:54:31;;;;;;;19.10;6.32;;;;;;;-8.49;88.11;100392.81;4485197;31;20085;-73
2022/01/25 02:56:58;;;;;;;11.68;4.03;;;;;;;-8.43;87.89;100403.03;4485428;31;20092;-73
2022/01/25 02:59:26;;;;;;;11.52;5.65;;;;;;;-8.17;87.93;100394.91;4485191;31;20100;-73
2022/01/25 03:01:54;;;;;;;16.83;5.87;;;;;;;-8.04;86.89;100401.88;4485446;31;20107;-73
2022/01/25 03:04:23;;;;;;;15.02;6.25;;;;;;;-8.03;86.54;100392.56;4485545;31;20155;-73
2022/01/25 03:06:51;;;;;;;14.27;6.72;;;;;;;-8.14;86.36;100394.97;4485204;31;20081;-74
2022/01/25 03:09:18;;;;;;;16.10;6.75;;;;;;;-8.12;85.91;100397.53;4485426;31;20092;-74
2022/01/25 03:11:48;;;;;;;14.75;5.62;;;;;;;-8.21;86.05;100396.56;4485442;31;20092;-73
2022/01/25 03:14:18;;;;;;;18.65;6.60;;;;;;;-8.24;86.51;100390.59;4484376;32;20108;-74
2022/01/25 03:17:03;;;;;;;14.48;6.97;;;;;;;-8.27;86.63;100390.53;4485534;31;20092;-73
2022/01/25 03:22:13;;;;;;;14.68;5.82;;;;;;;-8.21;86.28;100388.09;4485387;32;20145;-73
2022/01/25 03:24:41;;;;;;;9.95;5.40;;;;;;;-8.34;86.79;100383.66;4484196;32;20100;-74
2022/01/25 03:27:08;;;;;;;17.60;6.20;;;;;;;-8.46;87.12;100376.75;4485330;31;20449;-74
2022/01/25 03:29:36;;;;;;;14.25;5.28;;;;;;;-8.53;86.98;100373.28;4485262;31;20097;-73
2022/01/25 03:32:04;;;;;;;11.30;5.25;;;;;;;-8.51;86.90;100379.22;4485162;31;20740;-73
2022/01/25 03:34:32;;;;;;;11.73;5.12;;;;;;;-8.42;86.68;100370.84;4485082;31;20127;-74
2022/01/25 03:36:59;;;;;;;16.65;6.68;;;;;;;-8.43;87.05;100372.56;4485247;31;20114;-74
2022/01/25 03:39:26;;;;;;;13.70;6.20;;;;;;;-8.39;86.96;100361.59;4485176;31;20398;-74
2022/01/25 03:41:53;;;;;;;12.95;5.10;;;;;;;-8.34;87.31;100365.87;4485152;31;20119;-73
2022/01/25 03:44:20;;;;;;;16.48;6.40;;;;;;;-8.15;87.36;100356.81;4483991;31;20119;-73
2022/01/25 03:52:02;;;;;;;15.18;5.37;;;;;;;-7.59;86.54;100356.59;4485157;31;20077;-73
2022/01/25 03:54:30;;;;;;;9.30;5.03;;;;;;;-7.39;86.50;100353.38;4484885;31;20486;-73
2022/01/25 03:56:57;;;;;;;11.50;4.93;;;;;;;-7.13;85.67;100353.59;4484965;31;20169;-73
2022/01/25 03:59:25;;;;;;;15.15;5.53;;;;;;;-7.02;85.16;100339.28;4484697;31;20119;-73
2022/01/25 04:01:52;;;;;;;10.93;5.28;;;;;;;-6.91;84.79;100343.59;4484960;32;20108;-73
2022/01/25 04:04:23;;;;;;;13.88;5.55;;;;;;;-6.85;84.67;100338.56;4485009;31;20092;-73
2022/01/25 04:06:52;;;;;;;13.68;5.78;;;;;;;-6.78;84.63;100338.59;4484934;31;20098;-73
2022/01/25 04:09:21;;;;;;;13.35;4.80;;;;;;;-6.65;84.32;100341.22;4484992;31;20108;-73
2022/01/25 04:11:48;;;;;;;14.60;5.32;;;;;;;-6.63;84.25;100329.31;4484807;31;20123;-74
2022/01/25 04:14:15;;;;;;;16.12;6.30;;;;;;;-6.57;84.00;100331.06;4484975;31;20536;-73
2022/01/25 04:17:00;;;;;;;12.55;5.80;;;;;;;-6.58;84.42;100324.28;4485134;31;20134;-73
2022/01/25 04:25:02;;;;;;;15.43;6.10;;;;;;;-6.35;84.11;100320.12;4484823;31;20076;-73
2022/01/25 04:27:31;;;;;;;12.13;5.00;;;;;;;-6.30;84.06;100323.59;4484861;31;20089;-74
2022/01/25 04:29:58;;;;;;;17.40;6.95;;;;;;;-6.20;83.35;100313.41;4484817;31;20477;-73
2022/01/25 04:32:43;;;;;;;13.98;4.75;;;;;;;-6.13;83.03;100316.00;4484710;31;20123;-73
2022/01/25 04:49:09;;;;;;;15.73;6.72;;;;;;;-6.19;82.72;100292.16;4468882;32;20504;-73
2022/01/25 04:57:28;;;;;;;21.12;8.50;;;;;;;-6.01;81.49;100291.34;4468499;32;20084;-73
2022/01/25 04:59:36;;;;;;;16.12;6.50;;;;;;;-6.05;81.64;100280.31;4466205;32;20119;-73
2022/01/25 05:02:09;;;;;;;16.55;7.75;;;;;;;-6.04;82.17;100276.91;4468683;32;20088;-73
2022/01/25 05:04:44;;;;;;;17.87;8.00;;;;;;;-5.95;81.98;100273.47;4468711;32;20453;-73
2022/01/25 05:07:29;;;;;;;24.20;8.18;;;;;;;-5.92;82.00;100276.91;4468722;32;20085;-74
2022/01/25 05:09:57;;;;;;;;;;;;;;;-5.93;81.38;100270.09;4468549;32;20116;-73
2022/01/25 05:12:39;;;;;;;16.45;6.80;;;;;;;-5.96;82.00;100256.50;4468537;32;19964;-74
2022/01/25 05:16:01;;;;;;;18.80;8.13;;;;;;;-6.07;82.05;100252.25;4468670;32;20473;-74
2022/01/25 05:18:37;;;;;;;25.62;7.82;;;;;;;-6.02;82.11;100247.16;4468349;32;20104;-73
2022/01/25 05:23:50;;;;;;;20.80;7.75;;;;;;;-5.99;82.00;100254.81;4468347;32;20089;-73
2022/01/25 05:26:18;;;;;;;23.70;9.07;;;;;;;-5.91;81.83;100257.34;4468346;32;20089;-73
2022/01/25 05:28:45;;;;;;;21.70;8.02;;;;;;;-5.84;81.51;100246.31;4468554;32;20080;-73
2022/01/25 05:31:12;;;;;;;24.37;8.40;;;;;;;-6.02;82.18;100241.19;4468181;32;20093;-73
2022/01/25 05:33:39;;;;;;;19.65;7.50;;;;;;;-6.00;81.81;100253.09;4474652;32;20161;-73
2022/01/25 05:36:06;;;;;;;15.98;7.72;;;;;;;-6.02;82.52;100247.16;4483639;31;20119;-73
2022/01/25 05:38:33;;;;;;;21.42;8.15;;;;;;;-5.99;82.43;100249.69;4483470;31;20127;-73
2022/01/25 05:41:03;;;;;;;19.27;7.95;;;;;;;-5.81;82.14;100243.75;4483701;31;20097;-74
2022/01/25 05:46:20;;;;;;;24.75;8.43;;;;;;;-5.88;82.09;100240.31;4479282;32;20506;-73
2022/01/25 05:48:47;;;;;;;20.80;8.60;;;;;;;-5.89;82.85;100237.75;4483668;31;20084;-73
2022/01/25 05:51:14;;;;;;;18.62;7.68;;;;;;;-5.85;82.63;100243.75;4483810;31;20084;-74
2022/01/25 05:53:42;;;;;;;25.88;8.05;;;;;;;-5.96;82.80;100236.91;4483401;32;20118;-73
2022/01/25 05:56:09;;;;;;;19.08;8.43;;;;;;;-5.81;82.82;100235.22;4483071;31;20575;-74
2022/01/25 05:58:36;;;;;;;20.25;8.15;;;;;;;-5.74;82.75;100227.59;4483338;31;20126;-73
2022/01/25 06:01:04;;;;;;;21.23;8.50;;;;;;;-5.76;82.78;100243.75;4482990;31;20454;-74
2022/01/25 06:03:31;;;;;;;23.27;7.97;;;;;;;-5.70;83.20;100233.53;4474446;31;20132;-74
2022/01/25 06:05:59;;;;;;;20.52;8.55;;;;;;;-5.66;82.96;100229.28;4478690;32;20161;-74
2022/01/25 06:08:26;;;;;;;22.02;8.73;;;;;;;-5.71;82.41;100231.84;4482384;31;20160;-73
2022/01/25 06:10:53;;;;;;;25.00;8.73;;;;;;;-5.71;82.39;100226.72;4472022;32;20096;-74
2022/01/25 06:13:20;;;;;;;23.50;7.43;;;;;;;-5.85;83.20;100231.00;4482505;31;20080;-74
2022/01/25 06:15:47;;;;;;;23.67;8.02;;;;;;;-5.79;83.17;100229.28;4482924;32;20123;-74
2022/01/25 06:18:15;;;;;;;20.37;8.52;;;;;;;-5.80;83.41;100236.94;4482721;32;20143;-73
2022/01/25 06:20:42;;;;;;;25.95;9.25;;;;;;;-5.72;82.74;100230.16;4482636;31;20108;-74
2022/01/25 06:23:09;;;;;;;18.87;8.45;;;;;;;-5.72;82.26;100232.72;4478463;31;20843;-74
2022/01/25 06:25:36;;;;;;;24.35;8.50;;;;;;;-5.73;82.38;100221.62;4485547;31;20439;-73
2022/01/25 06:28:03;;;;;;;27.25;8.80;;;;;;;-5.72;82.24;100214.84;4475863;31;20386;-73
2022/01/25 06:30:31;;;;;;;17.85;7.87;;;;;;;-5.80;82.66;100221.62;4473594;32;20123;-74
2022/01/25 06:32:59;;;;;;;19.23;8.18;;;;;;;-5.71;82.48;100214.84;4476727;32;20215;-73
2022/01/25 06:35:31;;;;;;;17.73;8.07;;;;;;;-5.65;82.77;100221.62;4479435;32;20108;-72
2022/01/25 06:37:58;;;;;;;22.55;8.35;;;;;;;-5.58;82.69;100207.19;4485423;31;20092;-73
2022/01/25 06:40:25;;;;;;;23.12;8.30;;;;;;;-5.62;83.00;100206.31;4484690;31;20390;-74
2022/01/25 06:42:53;;;;;;;19.90;9.02;;;;;;;-5.55;82.95;100208.00;4485362;31;20097;-73
2022/01/25 06:45:24;;;;;;;27.75;10.05;;;;;;;-5.55;83.11;100212.28;4476128;31;20107;-73
2022/01/25 06:47:51;;;;;;;24.55;9.88;;;;;;;-5.53;83.24;100214.00;4473754;32;20156;-73
2022/01/25 06:50:20;;;;;;;22.30;8.90;;;;;;;-5.48;82.68;100208.00;4474423;31;20100;-74
2022/01/25 06:52:48;;;;;;;26.10;9.30;;;;;;;-5.37;82.35;100219.09;4483097;31;20101;-73
2022/01/25 06:55:34;;;;;;;28.02;9.65;;;;;;;-5.37;82.36;100217.38;4482884;31;21068;-73
2022/01/25 06:58:02;;;;;;;21.10;8.13;;;;;;;-5.33;83.11;100215.66;4480184;32;20115;-73
2022/01/25 07:00:29;;;;;;;26.67;9.95;;;;;;;-5.17;82.56;100208.84;4469332;32;20093;-73
2022/01/25 07:02:56;;;;;;;24.10;8.80;;;;;;;-5.10;81.42;100219.87;4470253;31;20154;-72
2022/01/25 07:05:26;;;;;;;25.83;9.30;;;;;;;-5.06;80.93;100212.19;4476175;32;20123;-72
2022/01/25 07:07:53;;;;;;;23.02;8.77;;;;;;;-5.05;81.04;100218.19;4483258;31;20518;-72
2022/01/25 07:10:21;;;;;;;24.23;9.85;;;;;;;-5.06;81.19;100219.03;4485188;31;20405;-72
2022/01/25 07:12:48;;;;;;;27.58;9.10;;;;;;;-5.03;80.99;100216.47;4479794;31;20100;-72
2022/01/25 07:15:16;;;;;;;19.60;9.10;;;;;;;-4.92;80.59;100204.53;4484350;31;20100;-74
2022/01/25 07:17:43;;;;;;;25.65;9.50;;;;;;;-4.91;80.90;100195.97;4475034;31;20096;-73
2022/01/25 07:20:12;;;;;;;24.30;9.95;;;;;;;-4.90;81.07;100195.12;4480137;32;20085;-74
2022/01/25 07:22:40;;;;;;;22.60;9.60;;;;;;;-4.79;80.29;100200.22;4474271;32;20081;-74
2022/01/25 07:25:09;;;;;;;21.33;8.32;;;;;;;-4.72;80.51;100196.78;4480843;32;20506;-73
2022/01/25 07:27:37;;;;;;;20.65;9.07;;;;;;;-4.74;81.01;100193.41;4480851;31;20112;-74
2022/01/25 07:30:05;;;;;;;27.87;9.57;;;;;;;-4.62;81.33;100207.81;4482504;31;20100;-74
2022/01/25 07:32:33;;;;;;;25.08;9.60;;;;;;;-4.47;80.97;100209.44;4482161;31;20089;-72
2022/01/25 07:35:10;;;;;;;21.90;10.07;;;;;;;-4.32;80.39;100200.84;4483321;31;20107;-74
2022/01/25 07:37:42;;;;;;;23.08;8.30;;;;;;;-4.22;80.10;100207.63;4495836;31;20083;-74
2022/01/25 07:40:26;;;;;;;21.80;9.45;;;;;;;-4.15;79.39;100200.75;4489491;31;20132;-74
2022/01/25 07:42:54;;;;;;;26.35;9.93;;;;;;;-4.11;79.18;100200.72;4482986;31;20084;-74
2022/01/25 07:45:34;;;;;;;23.55;9.93;;;;;;;-4.17;79.47;100205.88;4484116;31;20088;-74
2022/01/25 07:48:10;;;;;;;27.67;8.88;;;;;;;-4.08;79.53;100199.03;4469521;32;20362;-74
2022/01/25 07:50:38;;;;;;;19.90;9.55;;;;;;;-4.13;80.48;100201.62;4470413;31;20167;-74
2022/01/25 07:53:05;;;;;;;28.05;10.82;;;;;;;-4.00;80.10;100199.81;4480865;31;20085;-75
2022/01/25 07:55:33;;;;;;;25.40;11.23;;;;;;;-4.11;80.63;100203.28;4484542;31;20442;-73
2022/01/25 07:58:00;;;;;;;28.27;12.45;;;;;;;-4.13;80.85;100202.47;4479249;31;20131;-75
2022/01/25 08:00:27;;;;;;;24.70;9.95;;;;;;;-4.05;80.91;100199.00;4483338;31;20100;-72
2022/01/25 08:02:55;;;;;;;25.30;10.25;;;;;;;-3.93;80.88;100201.47;4482300;32;20135;-73
2022/01/25 08:05:50;;;;;;;29.52;11.12;;;;;;;-3.82;80.41;100207.34;4479486;31;20100;-74
2022/01/25 08:08:33;;;;;;;26.87;11.32;;;;;;;-3.64;80.27;100197.84;4478307;31;20096;-73
2022/01/25 08:11:14;;;;;;;28.73;11.48;;;;;;;-3.69;80.76;100202.13;4481500;31;20110;-73
2022/01/25 08:13:49;;;;;;;29.98;10.93;;;;;;;-3.66;81.54;100195.31;4471891;31;20084;-73
2022/01/25 08:16:26;;;;;;;22.40;11.60;;;;;;;-3.51;81.64;100201.16;4479633;32;20174;-72
2022/01/25 08:18:54;;;;;;;28.58;12.02;;;;;;;-3.50;82.19;100193.44;4480951;31;20105;-73
2022/01/25 08:21:48;;;;;;;27.30;11.35;;;;;;;-3.42;82.15;100195.97;4444037;32;20577;-74
2022/01/25 08:24:26;;;;;;;30.62;11.43;;;;;;;-3.42;83.13;100181.44;4439305;32;20113;-73
2022/01/25 08:27:11;;;;;;;25.05;11.32;;;;;;;-3.19;82.53;100170.09;4446915;32;20999;-72
2022/01/25 08:29:48;;;;;;;29.45;12.23;;;;;;;-3.05;82.50;100168.22;4447151;32;20338;-73
2022/01/25 08:32:53;;;;;;;29.85;11.55;;;;;;;-3.01;82.55;100170.75;4385908;32;20120;-74
2022/01/25 08:35:35;;;;;;;30.25;11.02;;;;;;;-2.73;81.79;100156.75;4385507;32;20161;-73
2022/01/25 08:38:28;;;;;;;28.05;12.18;;;;;;;-2.45;81.24;100163.25;4387135;32;20318;-73
2022/01/25 08:41:00;;;;;;;31.12;12.13;;;;;;;-2.54;81.44;100165.06;4384821;32;20188;-72
2022/01/25 08:43:41;;;;;;;30.15;12.90;;;;;;;-2.50;82.12;100168.44;4332400;33;20134;-73
2022/01/25 08:46:18;;;;;;;29.60;12.25;;;;;;;-2.27;81.50;100164.72;4337969;33;20103;-72
2022/01/25 08:49:07;;;;;;;33.90;12.00;;;;;;;-2.05;81.23;100166.09;4337074;33;20116;-73
2022/01/25 08:51:49;;;;;;;30.35;12.25;;;;;;;-2.00;81.13;100160.88;4362516;32;20705;-72
2022/01/25 08:54:42;;;;;;;26.85;12.00;;;;;;;-1.90;80.92;100164.19;4326673;33;20536;-72
2022/01/25 08:57:25;;;;;;;31.08;10.70;;;;;;;-1.88;80.76;100167.56;4339780;32;20098;-72
2022/01/25 09:00:15;;;;;;;28.98;11.50;;;;;;;-1.86;80.75;100163.22;4342420;32;20130;-72
2022/01/25 09:02:43;;;;;;;33.60;12.82;;;;;;;-1.81;80.67;100164.88;4358222;32;20218;-72
2022/01/25 09:05:11;;;;;;;30.95;13.45;;;;;;;-1.57;79.46;100161.94;4359673;32;20597;-72
2022/01/25 09:07:38;;;;;;;31.58;11.93;;;;;;;-1.69;79.16;100163.81;4357269;32;20123;-72
2022/01/25 09:10:06;;;;;;;35.03;13.40;;;;;;;-1.57;79.54;100162.78;4356397;32;20143;-71
2022/01/25 09:12:33;;;;;;;33.78;13.52;;;;;;;-1.35;79.25;100173.50;4358296;32;20102;-72
2022/01/25 09:15:00;;;;;;;30.35;12.52;;;;;;;-1.45;78.83;100177.13;4356952;32;20131;-71
2022/01/25 09:17:28;;;;;;;28.17;11.98;;;;;;;-1.41;79.10;100178.75;4356863;32;20137;-72
2022/01/25 09:19:55;;;;;;;33.35;13.07;;;;;;;-1.25;78.71;100175.06;4361600;32;20466;-72
2022/01/25 09:22:25;;;;;;;28.73;13.73;;;;;;;-1.01;78.06;100178.06;4403863;32;20107;-72
2022/01/25 09:25:13;;;;;;;35.33;13.07;;;;;;;-0.89;77.19;100179.53;4396389;32;20110;-72
2022/01/25 09:27:46;;;;;;;28.95;11.48;;;;;;;-0.86;77.20;100173.47;4395948;32;20094;-72
2022/01/25 09:30:13;;;;;;;35.35;13.65;;;;;;;-0.76;77.22;100177.56;4451439;32;20136;-72
2022/01/25 09:32:41;;;;;;;38.58;13.70;;;;;;;-0.55;76.41;100169.41;4473416;32;20134;-72
2022/01/25 09:35:08;;;;;;;27.13;13.35;;;;;;;-0.47;76.17;100169.25;4478077;31;20092;-72
2022/01/25 09:37:35;;;;;;;35.88;13.75;;;;;;;-0.64;76.86;100163.59;4483319;31;20093;-72
2022/01/25 09:40:03;;;;;;;29.80;12.98;;;;;;;-0.48;76.35;100167.56;4483293;31;20093;-72
2022/01/25 09:42:31;;;;;;;35.35;13.27;;;;;;;-0.62;76.77;100157.56;4474763;32;20123;-72
2022/01/25 09:44:59;;;;;;;26.05;10.93;;;;;;;-0.60;76.76;100162.66;4481372;31;20633;-72
2022/01/25 09:47:26;;;;;;;29.77;13.00;;;;;;;-0.51;76.07;100156.50;4481169;31;20085;-72
2022/01/25 09:49:54;;;;;;;32.08;12.95;;;;;;;-0.35;75.71;100142.37;4484253;32;20100;-72
2022/01/25 09:52:23;;;;;;;32.92;12.63;;;;;;;-0.49;76.26;100134.12;4478466;31;20184;-72
2022/01/25 09:54:55;;;;;;;27.83;11.68;;;;;;;-0.46;76.78;100139.19;4478996;31;20100;-72
2022/01/25 09:57:23;;;;;;;32.97;13.30;;;;;;;-0.38;76.94;100140.75;4474905;32;20400;-72
2022/01/25 09:59:51;;;;;;;27.75;11.68;;;;;;;-0.35;77.36;100139.81;4484401;32;20093;-72
2022/01/25 10:02:43;;;;;;;35.80;13.82;;;;;;;-0.34;77.12;100125.22;4478530;31;20119;-73
2022/01/25 10:05:18;;;;;;;33.80;13.10;;;;;;;-0.38;77.75;100119.28;4483257;31;20592;-72
2022/01/25 10:07:57;;;;;;;25.52;11.68;;;;;;;-0.28;77.32;100114.78;4482501;32;20475;-72
2022/01/25 10:10:27;;;;;;;30.37;11.20;;;;;;;-0.06;76.35;100126.28;4475990;32;20391;-72
2022/01/25 10:13:17;;;;;;;35.95;15.07;;;;;;;0.08;75.89;100115.63;4479653;31;20157;-72
2022/01/25 10:15:45;;;;;;;34.53;13.93;;;;;;;0.11;75.63;100112.13;4480839;31;20096;-72
2022/01/25 10:18:20;;;;;;;33.05;12.55;;;;;;;-0.12;76.82;100108.37;4480074;31;20092;-72
2022/01/25 10:20:50;;;;;;;30.10;13.27;;;;;;;-0.03;77.01;100113.31;4483208;31;20454;-72
2022/01/25 10:23:25;;;;;;;29.15;12.68;;;;;;;-0.07;76.65;100116.00;4479943;31;20112;-72
2022/01/25 10:25:53;;;;;;;27.27;11.35;;;;;;;0.06;77.21;100107.09;4481543;32;20092;-72
2022/01/25 10:28:28;;;;;;;34.35;13.88;;;;;;;0.14;76.69;100112.06;4483266;31;20092;-72
2022/01/25 10:30:58;;;;;;;27.50;11.82;;;;;;;0.43;75.72;100095.84;4483255;31;20100;-72
2022/01/25 10:33:52;;;;;;;29.15;13.05;;;;;;;0.28;75.32;100102.25;4480513;31;20096;-72
2022/01/25 10:36:45;;;;;;;28.52;12.82;;;;;;;0.44;74.73;100102.72;4486059;31;20112;-72
2022/01/25 10:39:21;;;;;;;32.53;13.13;;;;;;;0.57;74.93;100092.91;4485840;31;20088;-72
2022/01/25 10:41:49;;;;;;;32.45;12.70;;;;;;;0.57;74.35;100086.91;4476118;32;20097;-72
2022/01/25 10:44:17;;;;;;;30.45;13.93;;;;;;;0.37;75.16;100088.28;4484146;31;20083;-72
2022/01/25 10:46:44;;;;;;;27.80;11.20;;;;;;;0.41;75.84;100089.03;4477873;32;20104;-72
2022/01/25 10:49:13;;;;;;;30.48;13.35;;;;;;;0.47;75.26;100099.19;4474472;32;20164;-72
2022/01/25 10:51:45;;;;;;;32.05;13.52;;;;;;;0.53;75.26;100096.47;4470438;32;20813;-72
2022/01/25 10:54:15;;;;;;;32.95;12.90;;;;;;;0.59;76.62;100082.53;4478856;31;20100;-72
2022/01/25 10:57:02;;;;;;;28.70;12.82;;;;;;;0.73;75.34;100082.16;4485113;31;20156;-71
2022/01/25 10:59:33;;;;;;;33.85;13.02;;;;;;;0.80;74.43;100081.09;4484271;31;20148;-72
2022/01/25 11:02:05;;;;;;;35.78;14.35;;;;;;;0.80;74.34;100079.41;4483771;31;20123;-71
2022/01/25 11:04:36;;;;;;;34.53;14.95;;;;;;;1.05;74.40;100076.94;4483126;32;20122;-73
2022/01/25 11:07:07;;;;;;;38.47;15.32;;;;;;;1.09;74.38;100085.47;4472613;32;20510;-72
2022/01/25 11:09:41;;;;;;;37.88;15.00;;;;;;;1.24;73.31;100076.41;4475602;31;20151;-72
2022/01/25 11:12:12;;;;;;;37.30;16.05;;;;;;;1.27;72.79;100072.88;4480956;32;20100;-71
2022/01/25 11:14:57;;;;;;;40.25;15.43;;;;;;;1.25;72.97;100080.69;4482055;31;20132;-71
2022/01/25 11:17:28;;;;;;;27.37;12.57;;;;;;;1.45;72.29;100071.50;4483731;32;20211;-72
2022/01/25 11:19:57;;;;;;;38.20;14.38;;;;;;;1.60;70.76;100073.59;4484475;31;20092;-71
2022/01/25 11:22:25;;;;;;;33.63;14.05;;;;;;;1.73;70.84;100074.91;4470333;32;20101;-71
2022/01/25 11:24:56;;;;;;;37.30;15.48;;;;;;;2.03;69.60;100069.62;4485140;31;20143;-71
2022/01/25 11:27:25;;;;;;;34.63;15.30;;;;;;;2.26;69.17;100068.84;4487967;31;20464;-71
2022/01/25 11:29:58;;;;;;;30.33;14.25;;;;;;;2.19;68.96;100069.94;4483755;31;20578;-71
2022/01/25 11:32:29;;;;;;;30.33;13.93;;;;;;;2.35;68.71;100070.28;4482923;31;20108;-71
2022/01/25 11:34:57;;;;;;;34.58;16.30;;;;;;;2.06;69.17;100066.09;4483221;32;20100;-70
2022/01/25 11:37:38;;;;;;;29.73;14.95;;;;;;;1.83;70.09;100061.69;4479320;32;20449;-71
2022/01/25 11:40:26;;;;;;;30.40;13.95;;;;;;;1.83;71.16;100052.19;4476765;32;20114;-70
2022/01/25 11:42:58;;;;;;;32.67;15.05;;;;;;;1.86;71.84;100046.06;4481461;32;20171;-70
2022/01/25 11:45:34;;;;;;;30.27;14.60;;;;;;;1.73;72.24;100037.88;4477889;31;20100;-71
2022/01/25 11:48:02;;;;;;;31.73;14.43;;;;;;;1.69;72.86;100044.88;4474768;32;20488;-71
2022/01/25 11:50:41;;;;;;;33.45;14.70;;;;;;;1.80;72.71;100041.09;4477206;32;20496;-71
2022/01/25 11:53:13;;;;;;;36.05;12.95;;;;;;;1.74;72.75;100031.81;4482916;31;20104;-71
2022/01/25 11:55:49;;;;;;;30.88;12.95;;;;;;;1.62;73.35;100038.25;4478637;32;20127;-71
2022/01/25 11:58:26;;;;;;;34.83;14.35;;;;;;;1.72;73.45;100031.03;4483177;32;20119;-70
2022/01/25 12:00:57;;;;;;;33.38;13.98;;;;;;;1.61;73.68;100041.72;4475098;32;20224;-70
2022/01/25 12:03:31;;;;;;;30.62;11.93;;;;;;;1.97;73.51;100033.66;4482726;32;20543;-71
2022/01/25 12:06:07;;;;;;;30.52;13.05;;;;;;;1.91;72.95;100033.87;4479419;32;20106;-70
2022/01/25 12:08:51;;;;;;;32.97;12.45;;;;;;;1.98;73.18;100024.16;4478174;32;20537;-71
2022/01/25 12:12:06;;;;;;;26.95;12.55;;;;;;;1.97;73.09;100018.16;4476737;32;20153;-71
2022/01/25 12:14:50;;;;;;;24.85;12.25;;;;;;;1.97;72.62;100012.12;4484754;31;20140;-70
2022/01/25 12:17:25;;;;;;;30.65;12.60;;;;;;;1.81;73.39;100006.63;4477584;31;20100;-70
2022/01/25 12:19:58;;;;;;;30.73;12.35;;;;;;;1.77;74.28;100011.91;4474602;32;20123;-71
2022/01/25 12:25:07;;;;;;;33.05;14.07;;;;;;;1.90;73.25;100014.91;4483880;32;20172;-71
2022/01/25 12:27:38;;;;;;;29.95;13.62;;;;;;;1.81;73.61;100012.63;4480802;31;20111;-71
2022/01/25 12:30:19;;;;;;;35.70;14.32;;;;;;;1.83;73.98;100018.59;4495799;31;20106;-71
2022/01/25 12:33:03;;;;;;;30.33;12.52;;;;;;;1.49;75.05;100009.38;4478893;32;20087;-71
2022/01/25 12:36:01;;;;;;;33.05;13.88;;;;;;;1.38;75.68;100001.97;4483418;32;20092;-70
2022/01/25 12:38:49;;;;;;;30.20;13.13;;;;;;;1.55;75.98;100003.16;4483419;31;20171;-71
2022/01/25 12:41:21;;;;;;;30.35;12.93;;;;;;;1.61;75.87;100007.28;4483844;32;20088;-71
2022/01/25 12:43:51;;;;;;;33.03;13.35;;;;;;;1.53;76.35;100000.63;4481561;32;20139;-71
2022/01/25 12:46:26;;;;;;;30.77;13.30;;;;;;;1.59;76.28;99997.00;4482499;31;20165;-71
2022/01/25 12:48:59;;;;;;;33.40;12.43;;;;;;;1.49;77.47;99996.44;4482485;32;20100;-71
2022/01/25 12:51:29;;;;;;;32.95;14.65;;;;;;;1.70;76.84;99989.75;4480425;31;20548;-70
2022/01/25 12:53:59;;;;;;;33.50;14.75;;;;;;;1.83;76.51;99985.00;4474110;31;20108;-69
2022/01/25 12:56:43;;;;;;;33.05;13.25;;;;;;;1.88;76.23;99988.28;4476344;31;20093;-71
2022/01/25 12:59:13;;;;;;;33.42;14.45;;;;;;;1.75;76.92;99987.00;4466829;32;20096;-70
2022/01/25 13:01:45;;;;;;;38.40;14.98;;;;;;;1.43;78.65;99976.00;4491882;31;20154;-71
2022/01/25 13:04:13;;;;;;;35.95;14.70;;;;;;;1.19;79.43;99973.28;4473184;32;20444;-71
2022/01/25 13:06:43;;;;;;;31.77;13.10;;;;;;;1.16;80.08;99965.63;4476859;31;20127;-71
2022/01/25 13:09:25;;;;;;;30.75;13.95;;;;;;;1.33;79.51;99969.44;4479595;31;20126;-71
2022/01/25 13:12:27;;;;;;;41.50;14.80;;;;;;;1.64;79.21;99963.28;4480035;31;20080;-71
2022/01/25 13:17:25;;;;;;;38.08;14.98;;;;;;;1.52;78.62;99955.03;4480488;31;20479;-71
2022/01/25 13:19:59;;;;;;;36.08;15.38;;;;;;;1.32;79.79;99953.09;4468558;32;20131;-71
2022/01/25 13:22:33;;;;;;;35.00;14.55;;;;;;;1.37;79.73;99940.87;4468804;32;20107;-71
2022/01/25 13:27:49;;;;;;;34.58;13.55;;;;;;;1.35;80.10;99941.84;4480127;32;20092;-71